sensor_id;sensor_type;location;lat;lon;timestamp;temperature;humidity
22430;DHT22;11382;48.086;11.632;2023-03-21T00:00:53;8.10;99.90
22430;DHT22;11382;48.086;11.632;2023-03-21T00:03:21;8.00;99.90
22430;DHT22;11382;48.086;11.632;2023-03-21T00:05:49;8.00;99.90
22430;DHT22;11382;48.086;11.632;2023-03-21T00:08:21;8.10;99.90
22430;DHT22;11382;48.086;11.632;2023-03-21T00:10:55;8.10;99.90
22430;DHT22;11382;48.086;11.632;2023-03-21T00:13:24;8.20;99.90
22430;DHT22;11382;48.086;11.632;2023-03-21T00:15:54;8.20;99.90
22430;DHT22;11382;48.086;11.632;2023-03-21T00:18:42;8.20;99.90
22430;DHT22;11382;48.086;11.632;2023-03-21T00:21:14;8.10;99.90
22430;DHT22;11382;48.086;11.632;2023-03-21T00:24:02;8.20;99.90
22430;DHT22;11382;48.086;11.632;2023-03-21T00:26:32;8.20;99.90
22430;DHT22;11382;48.086;11.632;2023-03-21T00:29:00;8.20;99.90
22430;DHT22;11382;48.086;11.632;2023-03-21T00:31:28;8.20;99.90
22430;DHT22;11382;48.086;11.632;2023-03-21T00:33:58;8.20;99.90
22430;DHT22;11382;48.086;11.632;2023-03-21T00:36:27;8.20;99.90
22430;DHT22;11382;48.086;11.632;2023-03-21T00:38:57;8.30;99.90
22430;DHT22;11382;48.086;11.632;2023-03-21T00:41:26;8.40;99.90
22430;DHT22;11382;48.086;11.632;2023-03-21T00:44:12;8.30;99.90
22430;DHT22;11382;48.086;11.632;2023-03-21T00:46:41;8.40;99.90
22430;DHT22;11382;48.086;11.632;2023-03-21T00:49:26;8.30;99.90
22430;DHT22;11382;48.086;11.632;2023-03-21T00:52:02;8.30;99.90
22430;DHT22;11382;48.086;11.632;2023-03-21T00:54:44;8.40;99.90
22430;DHT22;11382;48.086;11.632;2023-03-21T00:57:12;8.40;99.90
22430;DHT22;11382;48.086;11.632;2023-03-21T00:59:41;8.40;99.90
22430;DHT22;11382;48.086;11.632;2023-03-21T01:02:09;8.40;99.90
22430;DHT22;11382;48.086;11.632;2023-03-21T01:04:40;8.40;99.90
22430;DHT22;11382;48.086;11.632;2023-03-21T01:07:16;8.40;99.90
22430;DHT22;11382;48.086;11.632;2023-03-21T01:09:44;8.40;99.90
22430;DHT22;11382;48.086;11.632;2023-03-21T01:12:12;8.40;99.90
22430;DHT22;11382;48.086;11.632;2023-03-21T01:14:41;8.40;99.90
22430;DHT22;11382;48.086;11.632;2023-03-21T01:17:09;8.50;99.90
22430;DHT22;11382;48.086;11.632;2023-03-21T01:19:37;8.50;99.90
22430;DHT22;11382;48.086;11.632;2023-03-21T01:22:18;8.50;99.90
22430;DHT22;11382;48.086;11.632;2023-03-21T01:24:46;8.50;99.90
22430;DHT22;11382;48.086;11.632;2023-03-21T01:27:35;8.60;99.90
22430;DHT22;11382;48.086;11.632;2023-03-21T01:30:06;8.60;99.90
22430;DHT22;11382;48.086;11.632;2023-03-21T01:32:46;8.50;99.90
22430;DHT22;11382;48.086;11.632;2023-03-21T01:35:14;8.50;99.90
22430;DHT22;11382;48.086;11.632;2023-03-21T01:37:42;8.50;99.90
22430;DHT22;11382;48.086;11.632;2023-03-21T01:40:15;8.40;99.90
22430;DHT22;11382;48.086;11.632;2023-03-21T01:42:48;8.30;99.90
22430;DHT22;11382;48.086;11.632;2023-03-21T01:48:40;8.30;99.90
22430;DHT22;11382;48.086;11.632;2023-03-21T01:51:10;8.30;99.90
22430;DHT22;11382;48.086;11.632;2023-03-21T01:53:53;8.30;99.90
22430;DHT22;11382;48.086;11.632;2023-03-21T01:56:24;8.40;99.90
22430;DHT22;11382;48.086;11.632;2023-03-21T01:59:09;8.40;99.90
22430;DHT22;11382;48.086;11.632;2023-03-21T02:02:00;8.40;99.90
22430;DHT22;11382;48.086;11.632;2023-03-21T02:04:39;8.40;99.90
22430;DHT22;11382;48.086;11.632;2023-03-21T02:07:18;8.50;99.90
22430;DHT22;11382;48.086;11.632;2023-03-21T02:09:53;8.50;99.90
22430;DHT22;11382;48.086;11.632;2023-03-21T02:16:48;8.40;99.90
22430;DHT22;11382;48.086;11.632;2023-03-21T02:19:48;8.40;99.90
22430;DHT22;11382;48.086;11.632;2023-03-21T02:22:42;8.50;99.90
22430;DHT22;11382;48.086;11.632;2023-03-21T02:25:32;8.40;99.90
22430;DHT22;11382;48.086;11.632;2023-03-21T02:28:14;8.40;99.90
22430;DHT22;11382;48.086;11.632;2023-03-21T02:31:11;8.50;99.90
22430;DHT22;11382;48.086;11.632;2023-03-21T02:37:19;8.40;99.90
22430;DHT22;11382;48.086;11.632;2023-03-21T02:40:07;8.40;99.90
22430;DHT22;11382;48.086;11.632;2023-03-21T02:42:47;8.40;99.90
22430;DHT22;11382;48.086;11.632;2023-03-21T02:45:30;8.40;99.90
22430;DHT22;11382;48.086;11.632;2023-03-21T02:48:05;8.40;99.90
22430;DHT22;11382;48.086;11.632;2023-03-21T02:50:46;8.40;99.90
22430;DHT22;11382;48.086;11.632;2023-03-21T02:53:20;8.50;99.90
22430;DHT22;11382;48.086;11.632;2023-03-21T02:55:50;8.50;99.90
22430;DHT22;11382;48.086;11.632;2023-03-21T02:58:20;8.40;99.90
22430;DHT22;11382;48.086;11.632;2023-03-21T03:00:54;8.30;99.90
22430;DHT22;11382;48.086;11.632;2023-03-21T03:03:31;8.40;99.90
22430;DHT22;11382;48.086;11.632;2023-03-21T03:06:09;8.40;99.90
22430;DHT22;11382;48.086;11.632;2023-03-21T03:08:56;8.30;99.90
22430;DHT22;11382;48.086;11.632;2023-03-21T03:11:32;8.30;99.90
22430;DHT22;11382;48.086;11.632;2023-03-21T03:14:13;8.20;99.90
22430;DHT22;11382;48.086;11.632;2023-03-21T03:17:09;8.20;99.90
22430;DHT22;11382;48.086;11.632;2023-03-21T03:19:47;8.20;99.90
22430;DHT22;11382;48.086;11.632;2023-03-21T03:22:23;8.10;99.90
22430;DHT22;11382;48.086;11.632;2023-03-21T03:24:58;8.00;99.90
22430;DHT22;11382;48.086;11.632;2023-03-21T03:27:46;8.10;99.90
22430;DHT22;11382;48.086;11.632;2023-03-21T03:30:16;8.20;99.90
22430;DHT22;11382;48.086;11.632;2023-03-21T03:32:49;8.20;99.90
22430;DHT22;11382;48.086;11.632;2023-03-21T03:35:20;8.20;99.90
22430;DHT22;11382;48.086;11.632;2023-03-21T03:37:52;8.20;99.90
22430;DHT22;11382;48.086;11.632;2023-03-21T03:40:28;8.20;99.90
22430;DHT22;11382;48.086;11.632;2023-03-21T03:43:14;8.10;99.90
22430;DHT22;11382;48.086;11.632;2023-03-21T03:45:46;8.10;99.90
22430;DHT22;11382;48.086;11.632;2023-03-21T03:48:21;8.10;99.90
22430;DHT22;11382;48.086;11.632;2023-03-21T03:50:55;8.10;99.90
22430;DHT22;11382;48.086;11.632;2023-03-21T03:53:41;8.10;99.90
22430;DHT22;11382;48.086;11.632;2023-03-21T03:56:12;8.10;99.90
22430;DHT22;11382;48.086;11.632;2023-03-21T03:58:40;8.20;99.90
22430;DHT22;11382;48.086;11.632;2023-03-21T04:01:14;8.20;99.90
22430;DHT22;11382;48.086;11.632;2023-03-21T04:03:45;8.20;99.90
22430;DHT22;11382;48.086;11.632;2023-03-21T04:06:25;8.20;99.90
22430;DHT22;11382;48.086;11.632;2023-03-21T04:08:56;8.20;99.90
22430;DHT22;11382;48.086;11.632;2023-03-21T04:11:30;8.30;99.90
22430;DHT22;11382;48.086;11.632;2023-03-21T04:13:59;8.20;99.90
22430;DHT22;11382;48.086;11.632;2023-03-21T04:16:27;8.20;99.90
22430;DHT22;11382;48.086;11.632;2023-03-21T04:18:59;8.20;99.90
22430;DHT22;11382;48.086;11.632;2023-03-21T04:21:28;8.20;99.90
22430;DHT22;11382;48.086;11.632;2023-03-21T04:23:56;8.10;99.90
22430;DHT22;11382;48.086;11.632;2023-03-21T04:26:25;8.20;99.90
22430;DHT22;11382;48.086;11.632;2023-03-21T04:29:19;8.20;99.90
22430;DHT22;11382;48.086;11.632;2023-03-21T04:32:06;8.20;99.90
22430;DHT22;11382;48.086;11.632;2023-03-21T04:34:53;8.20;99.90
22430;DHT22;11382;48.086;11.632;2023-03-21T04:37:22;8.20;99.90
22430;DHT22;11382;48.086;11.632;2023-03-21T04:39:52;8.30;99.90
22430;DHT22;11382;48.086;11.632;2023-03-21T04:42:21;8.30;99.90
22430;DHT22;11382;48.086;11.632;2023-03-21T04:44:50;8.20;99.90
22430;DHT22;11382;48.086;11.632;2023-03-21T04:47:20;8.10;99.90
22430;DHT22;11382;48.086;11.632;2023-03-21T04:49:48;8.10;99.90
22430;DHT22;11382;48.086;11.632;2023-03-21T04:52:16;8.20;99.90
22430;DHT22;11382;48.086;11.632;2023-03-21T04:54:44;8.20;99.90
22430;DHT22;11382;48.086;11.632;2023-03-21T04:57:12;8.20;99.90
22430;DHT22;11382;48.086;11.632;2023-03-21T04:59:42;8.20;99.90
22430;DHT22;11382;48.086;11.632;2023-03-21T05:02:11;8.30;99.90
22430;DHT22;11382;48.086;11.632;2023-03-21T05:04:40;8.30;99.90
22430;DHT22;11382;48.086;11.632;2023-03-21T05:07:08;8.20;99.90
22430;DHT22;11382;48.086;11.632;2023-03-21T05:09:37;8.20;99.90
22430;DHT22;11382;48.086;11.632;2023-03-21T05:12:05;8.20;99.90
22430;DHT22;11382;48.086;11.632;2023-03-21T05:14:34;8.10;99.90
22430;DHT22;11382;48.086;11.632;2023-03-21T05:17:04;8.20;99.90
22430;DHT22;11382;48.086;11.632;2023-03-21T05:19:35;8.10;99.90
22430;DHT22;11382;48.086;11.632;2023-03-21T05:22:08;8.10;99.90
22430;DHT22;11382;48.086;11.632;2023-03-21T05:24:38;8.10;99.90
22430;DHT22;11382;48.086;11.632;2023-03-21T05:27:12;8.20;99.90
22430;DHT22;11382;48.086;11.632;2023-03-21T05:30:05;8.10;99.90
22430;DHT22;11382;48.086;11.632;2023-03-21T05:32:36;8.10;99.90
22430;DHT22;11382;48.086;11.632;2023-03-21T05:35:09;8.30;99.90
22430;DHT22;11382;48.086;11.632;2023-03-21T05:37:38;8.30;99.90
22430;DHT22;11382;48.086;11.632;2023-03-21T05:40:07;8.30;99.90
22430;DHT22;11382;48.086;11.632;2023-03-21T05:42:39;8.50;99.90
22430;DHT22;11382;48.086;11.632;2023-03-21T05:45:16;8.50;99.90
22430;DHT22;11382;48.086;11.632;2023-03-21T05:47:44;8.60;99.90
22430;DHT22;11382;48.086;11.632;2023-03-21T05:50:14;8.60;99.90
22430;DHT22;11382;48.086;11.632;2023-03-21T05:52:51;8.60;99.90
22430;DHT22;11382;48.086;11.632;2023-03-21T05:55:19;8.50;99.90
22430;DHT22;11382;48.086;11.632;2023-03-21T05:57:47;8.50;99.90
22430;DHT22;11382;48.086;11.632;2023-03-21T06:00:20;8.60;99.90
22430;DHT22;11382;48.086;11.632;2023-03-21T06:03:04;8.70;99.90
22430;DHT22;11382;48.086;11.632;2023-03-21T06:05:48;8.90;99.90
22430;DHT22;11382;48.086;11.632;2023-03-21T06:08:21;8.90;99.90
22430;DHT22;11382;48.086;11.632;2023-03-21T06:10:49;9.00;99.90
22430;DHT22;11382;48.086;11.632;2023-03-21T06:13:17;9.00;99.90
22430;DHT22;11382;48.086;11.632;2023-03-21T06:15:45;9.20;99.90
22430;DHT22;11382;48.086;11.632;2023-03-21T06:18:18;9.40;99.90
22430;DHT22;11382;48.086;11.632;2023-03-21T06:20:55;9.50;99.90
22430;DHT22;11382;48.086;11.632;2023-03-21T06:23:24;9.60;99.90
22430;DHT22;11382;48.086;11.632;2023-03-21T06:25:53;9.70;99.90
22430;DHT22;11382;48.086;11.632;2023-03-21T06:28:23;9.80;99.90
22430;DHT22;11382;48.086;11.632;2023-03-21T06:30:52;9.90;99.90
22430;DHT22;11382;48.086;11.632;2023-03-21T06:33:23;10.20;99.90
22430;DHT22;11382;48.086;11.632;2023-03-21T06:35:52;10.50;99.90
22430;DHT22;11382;48.086;11.632;2023-03-21T06:38:23;10.70;99.90
22430;DHT22;11382;48.086;11.632;2023-03-21T06:40:53;10.70;99.90
22430;DHT22;11382;48.086;11.632;2023-03-21T06:43:24;10.70;99.90
22430;DHT22;11382;48.086;11.632;2023-03-21T06:45:52;10.80;99.90
22430;DHT22;11382;48.086;11.632;2023-03-21T06:48:20;10.90;99.90
22430;DHT22;11382;48.086;11.632;2023-03-21T06:50:50;10.90;99.90
22430;DHT22;11382;48.086;11.632;2023-03-21T06:53:22;10.90;99.90
22430;DHT22;11382;48.086;11.632;2023-03-21T06:56:25;10.80;99.90
22430;DHT22;11382;48.086;11.632;2023-03-21T06:58:53;10.70;99.90
22430;DHT22;11382;48.086;11.632;2023-03-21T07:01:44;10.80;99.90
22430;DHT22;11382;48.086;11.632;2023-03-21T07:04:12;10.80;99.90
22430;DHT22;11382;48.086;11.632;2023-03-21T07:06:40;11.00;99.90
22430;DHT22;11382;48.086;11.632;2023-03-21T07:09:10;11.20;99.90
22430;DHT22;11382;48.086;11.632;2023-03-21T07:11:38;11.30;99.90
22430;DHT22;11382;48.086;11.632;2023-03-21T07:14:07;11.60;99.90
22430;DHT22;11382;48.086;11.632;2023-03-21T07:16:37;11.70;99.90
22430;DHT22;11382;48.086;11.632;2023-03-21T07:19:05;11.80;99.90
22430;DHT22;11382;48.086;11.632;2023-03-21T07:21:33;11.90;99.90
22430;DHT22;11382;48.086;11.632;2023-03-21T07:24:02;11.90;99.90
22430;DHT22;11382;48.086;11.632;2023-03-21T07:26:32;11.90;99.90
22430;DHT22;11382;48.086;11.632;2023-03-21T07:29:01;12.10;99.90
22430;DHT22;11382;48.086;11.632;2023-03-21T07:31:30;12.10;99.90
22430;DHT22;11382;48.086;11.632;2023-03-21T07:33:58;12.10;99.90
22430;DHT22;11382;48.086;11.632;2023-03-21T07:36:26;12.20;99.90
22430;DHT22;11382;48.086;11.632;2023-03-21T07:38:54;12.30;99.90
22430;DHT22;11382;48.086;11.632;2023-03-21T07:41:23;12.20;99.90
22430;DHT22;11382;48.086;11.632;2023-03-21T07:43:52;12.30;99.90
22430;DHT22;11382;48.086;11.632;2023-03-21T07:46:20;12.40;99.90
22430;DHT22;11382;48.086;11.632;2023-03-21T07:48:49;12.40;99.90
22430;DHT22;11382;48.086;11.632;2023-03-21T07:51:17;12.40;99.90
22430;DHT22;11382;48.086;11.632;2023-03-21T07:53:45;12.60;99.90
22430;DHT22;11382;48.086;11.632;2023-03-21T07:56:14;12.90;99.90
22430;DHT22;11382;48.086;11.632;2023-03-21T07:58:42;13.10;99.90
22430;DHT22;11382;48.086;11.632;2023-03-21T08:01:11;13.20;99.90
22430;DHT22;11382;48.086;11.632;2023-03-21T08:03:39;13.30;99.90
22430;DHT22;11382;48.086;11.632;2023-03-21T08:06:09;13.40;99.90
22430;DHT22;11382;48.086;11.632;2023-03-21T08:08:37;13.50;99.90
22430;DHT22;11382;48.086;11.632;2023-03-21T08:11:06;13.50;99.90
22430;DHT22;11382;48.086;11.632;2023-03-21T08:13:34;13.60;99.90
22430;DHT22;11382;48.086;11.632;2023-03-21T08:16:02;13.50;99.90
22430;DHT22;11382;48.086;11.632;2023-03-21T08:18:33;13.10;99.90
22430;DHT22;11382;48.086;11.632;2023-03-21T08:21:02;13.70;99.90
22430;DHT22;11382;48.086;11.632;2023-03-21T08:23:31;13.80;99.90
22430;DHT22;11382;48.086;11.632;2023-03-21T08:25:59;14.00;99.90
22430;DHT22;11382;48.086;11.632;2023-03-21T08:28:27;14.00;99.90
22430;DHT22;11382;48.086;11.632;2023-03-21T08:30:55;14.00;99.90
22430;DHT22;11382;48.086;11.632;2023-03-21T08:33:23;13.90;99.90
22430;DHT22;11382;48.086;11.632;2023-03-21T08:35:53;13.90;99.90
22430;DHT22;11382;48.086;11.632;2023-03-21T08:38:23;14.10;99.90
22430;DHT22;11382;48.086;11.632;2023-03-21T08:40:51;14.00;99.90
22430;DHT22;11382;48.086;11.632;2023-03-21T08:43:19;14.30;99.90
22430;DHT22;11382;48.086;11.632;2023-03-21T08:45:47;14.10;99.90
22430;DHT22;11382;48.086;11.632;2023-03-21T08:48:15;14.50;99.90
22430;DHT22;11382;48.086;11.632;2023-03-21T08:50:44;14.50;99.90
22430;DHT22;11382;48.086;11.632;2023-03-21T08:53:13;14.60;99.90
22430;DHT22;11382;48.086;11.632;2023-03-21T08:55:42;14.70;99.90
22430;DHT22;11382;48.086;11.632;2023-03-21T08:58:11;14.70;99.90
22430;DHT22;11382;48.086;11.632;2023-03-21T09:00:39;14.80;99.90
22430;DHT22;11382;48.086;11.632;2023-03-21T09:03:10;14.60;99.90
22430;DHT22;11382;48.086;11.632;2023-03-21T09:05:38;14.80;99.90
22430;DHT22;11382;48.086;11.632;2023-03-21T09:08:06;15.30;99.90
22430;DHT22;11382;48.086;11.632;2023-03-21T09:10:35;15.30;99.90
22430;DHT22;11382;48.086;11.632;2023-03-21T09:13:03;14.90;99.90
22430;DHT22;11382;48.086;11.632;2023-03-21T09:15:31;14.70;99.90
22430;DHT22;11382;48.086;11.632;2023-03-21T09:18:01;14.70;99.90
22430;DHT22;11382;48.086;11.632;2023-03-21T09:20:39;14.60;99.90
22430;DHT22;11382;48.086;11.632;2023-03-21T09:23:11;14.60;99.90
22430;DHT22;11382;48.086;11.632;2023-03-21T09:25:43;14.80;99.90
22430;DHT22;11382;48.086;11.632;2023-03-21T09:28:11;15.00;99.90
22430;DHT22;11382;48.086;11.632;2023-03-21T09:30:39;15.20;99.90
22430;DHT22;11382;48.086;11.632;2023-03-21T09:33:09;14.90;99.90
22430;DHT22;11382;48.086;11.632;2023-03-21T09:35:39;15.00;99.90
22430;DHT22;11382;48.086;11.632;2023-03-21T09:38:07;15.00;99.90
22430;DHT22;11382;48.086;11.632;2023-03-21T09:40:48;15.40;99.90
22430;DHT22;11382;48.086;11.632;2023-03-21T09:43:31;15.70;99.90
22430;DHT22;11382;48.086;11.632;2023-03-21T09:46:07;15.80;99.90
22430;DHT22;11382;48.086;11.632;2023-03-21T09:48:44;16.20;99.90
22430;DHT22;11382;48.086;11.632;2023-03-21T09:51:26;15.40;99.90
22430;DHT22;11382;48.086;11.632;2023-03-21T09:53:58;16.10;99.90
22430;DHT22;11382;48.086;11.632;2023-03-21T09:56:29;16.70;99.90
22430;DHT22;11382;48.086;11.632;2023-03-21T09:58:59;16.20;99.90
22430;DHT22;11382;48.086;11.632;2023-03-21T10:01:30;16.50;99.90
22430;DHT22;11382;48.086;11.632;2023-03-21T10:04:04;16.30;99.90
22430;DHT22;11382;48.086;11.632;2023-03-21T10:06:34;15.80;99.90
22430;DHT22;11382;48.086;11.632;2023-03-21T10:09:12;15.80;99.90
22430;DHT22;11382;48.086;11.632;2023-03-21T10:11:44;16.30;99.90
22430;DHT22;11382;48.086;11.632;2023-03-21T10:14:18;16.90;99.90
22430;DHT22;11382;48.086;11.632;2023-03-21T10:16:48;17.30;99.90
22430;DHT22;11382;48.086;11.632;2023-03-21T10:19:19;16.90;99.60
22430;DHT22;11382;48.086;11.632;2023-03-21T10:21:48;16.10;99.90
22430;DHT22;11382;48.086;11.632;2023-03-21T10:24:29;16.30;99.90
22430;DHT22;11382;48.086;11.632;2023-03-21T10:27:00;16.30;99.90
22430;DHT22;11382;48.086;11.632;2023-03-21T10:29:41;17.00;99.90
22430;DHT22;11382;48.086;11.632;2023-03-21T10:32:11;17.30;99.20
22430;DHT22;11382;48.086;11.632;2023-03-21T10:34:41;17.30;99.10
22430;DHT22;11382;48.086;11.632;2023-03-21T10:37:11;17.80;98.50
22430;DHT22;11382;48.086;11.632;2023-03-21T10:39:40;18.00;96.90
22430;DHT22;11382;48.086;11.632;2023-03-21T10:42:17;17.60;97.90
22430;DHT22;11382;48.086;11.632;2023-03-21T10:44:48;18.10;97.40
22430;DHT22;11382;48.086;11.632;2023-03-21T10:47:20;18.10;97.00
22430;DHT22;11382;48.086;11.632;2023-03-21T10:49:49;18.00;95.80
22430;DHT22;11382;48.086;11.632;2023-03-21T10:52:34;18.90;96.00
22430;DHT22;11382;48.086;11.632;2023-03-21T10:55:06;19.20;95.20
22430;DHT22;11382;48.086;11.632;2023-03-21T10:57:37;19.80;93.80
22430;DHT22;11382;48.086;11.632;2023-03-21T11:00:09;20.90;91.40
22430;DHT22;11382;48.086;11.632;2023-03-21T11:02:47;21.50;90.50
22430;DHT22;11382;48.086;11.632;2023-03-21T11:05:21;22.40;88.80
22430;DHT22;11382;48.086;11.632;2023-03-21T11:07:57;22.40;84.40
22430;DHT22;11382;48.086;11.632;2023-03-21T11:10:28;21.40;88.50
22430;DHT22;11382;48.086;11.632;2023-03-21T11:13:02;21.30;89.70
22430;DHT22;11382;48.086;11.632;2023-03-21T11:15:40;21.40;86.10
22430;DHT22;11382;48.086;11.632;2023-03-21T11:18:18;21.00;86.30
22430;DHT22;11382;48.086;11.632;2023-03-21T11:20:51;20.50;90.00
22430;DHT22;11382;48.086;11.632;2023-03-21T11:23:20;21.30;87.70
22430;DHT22;11382;48.086;11.632;2023-03-21T11:25:49;21.70;85.10
22430;DHT22;11382;48.086;11.632;2023-03-21T11:28:22;22.10;83.60
22430;DHT22;11382;48.086;11.632;2023-03-21T11:30:54;22.00;83.30
22430;DHT22;11382;48.086;11.632;2023-03-21T11:33:25;22.60;82.40
22430;DHT22;11382;48.086;11.632;2023-03-21T11:35:58;23.10;81.10
22430;DHT22;11382;48.086;11.632;2023-03-21T11:38:30;22.50;80.10
22430;DHT22;11382;48.086;11.632;2023-03-21T11:41:00;21.60;83.30
22430;DHT22;11382;48.086;11.632;2023-03-21T11:43:32;21.30;82.80
22430;DHT22;11382;48.086;11.632;2023-03-21T11:46:06;19.70;86.30
22430;DHT22;11382;48.086;11.632;2023-03-21T11:48:39;21.20;82.60
22430;DHT22;11382;48.086;11.632;2023-03-21T11:51:15;21.40;80.30
22430;DHT22;11382;48.086;11.632;2023-03-21T11:53:50;20.90;83.40
22430;DHT22;11382;48.086;11.632;2023-03-21T11:56:26;21.70;80.40
22430;DHT22;11382;48.086;11.632;2023-03-21T11:59:11;20.80;80.20
22430;DHT22;11382;48.086;11.632;2023-03-21T12:01:51;21.00;82.00
22430;DHT22;11382;48.086;11.632;2023-03-21T12:04:38;22.60;82.00
22430;DHT22;11382;48.086;11.632;2023-03-21T12:07:32;22.20;78.80
22430;DHT22;11382;48.086;11.632;2023-03-21T12:10:24;20.70;81.80
22430;DHT22;11382;48.086;11.632;2023-03-21T12:12:57;18.80;85.90
22430;DHT22;11382;48.086;11.632;2023-03-21T12:15:35;17.60;88.80
22430;DHT22;11382;48.086;11.632;2023-03-21T12:18:13;17.10;90.50
22430;DHT22;11382;48.086;11.632;2023-03-21T12:20:46;17.00;91.20
22430;DHT22;11382;48.086;11.632;2023-03-21T12:23:38;17.00;91.70
22430;DHT22;11382;48.086;11.632;2023-03-21T12:26:17;17.00;91.50
22430;DHT22;11382;48.086;11.632;2023-03-21T12:29:02;17.00;91.40
22430;DHT22;11382;48.086;11.632;2023-03-21T12:31:43;17.60;93.50
22430;DHT22;11382;48.086;11.632;2023-03-21T12:34:18;17.70;92.50
22430;DHT22;11382;48.086;11.632;2023-03-21T12:37:04;17.70;92.40
22430;DHT22;11382;48.086;11.632;2023-03-21T12:39:35;17.70;92.50
22430;DHT22;11382;48.086;11.632;2023-03-21T12:42:13;17.80;92.70
22430;DHT22;11382;48.086;11.632;2023-03-21T12:44:44;18.10;92.90
22430;DHT22;11382;48.086;11.632;2023-03-21T12:47:18;17.70;91.30
22430;DHT22;11382;48.086;11.632;2023-03-21T12:49:51;18.00;93.00
22430;DHT22;11382;48.086;11.632;2023-03-21T12:52:24;18.20;91.20
22430;DHT22;11382;48.086;11.632;2023-03-21T12:54:57;17.90;87.30
22430;DHT22;11382;48.086;11.632;2023-03-21T12:57:30;18.10;85.90
22430;DHT22;11382;48.086;11.632;2023-03-21T13:00:02;18.20;89.00
22430;DHT22;11382;48.086;11.632;2023-03-21T13:02:42;18.30;87.90
22430;DHT22;11382;48.086;11.632;2023-03-21T13:05:16;18.50;87.20
22430;DHT22;11382;48.086;11.632;2023-03-21T13:07:49;18.30;87.50
22430;DHT22;11382;48.086;11.632;2023-03-21T13:10:20;18.20;87.00
22430;DHT22;11382;48.086;11.632;2023-03-21T13:13:02;18.30;87.20
22430;DHT22;11382;48.086;11.632;2023-03-21T13:15:44;18.40;87.40
22430;DHT22;11382;48.086;11.632;2023-03-21T13:18:27;18.60;85.50
22430;DHT22;11382;48.086;11.632;2023-03-21T13:21:01;18.80;84.10
22430;DHT22;11382;48.086;11.632;2023-03-21T13:23:36;18.60;84.90
22430;DHT22;11382;48.086;11.632;2023-03-21T13:26:07;18.70;86.10
22430;DHT22;11382;48.086;11.632;2023-03-21T13:28:39;18.80;85.80
22430;DHT22;11382;48.086;11.632;2023-03-21T13:31:16;19.00;85.30
22430;DHT22;11382;48.086;11.632;2023-03-21T13:33:47;19.40;85.40
22430;DHT22;11382;48.086;11.632;2023-03-21T13:36:22;19.70;84.50
22430;DHT22;11382;48.086;11.632;2023-03-21T13:38:53;19.10;80.80
22430;DHT22;11382;48.086;11.632;2023-03-21T13:41:30;19.10;81.30
22430;DHT22;11382;48.086;11.632;2023-03-21T13:44:08;19.90;80.40
22430;DHT22;11382;48.086;11.632;2023-03-21T13:46:44;19.90;78.50
22430;DHT22;11382;48.086;11.632;2023-03-21T13:49:30;20.00;79.50
22430;DHT22;11382;48.086;11.632;2023-03-21T13:52:00;19.80;78.50
22430;DHT22;11382;48.086;11.632;2023-03-21T13:54:44;19.60;78.20
22430;DHT22;11382;48.086;11.632;2023-03-21T13:57:35;19.40;79.00
22430;DHT22;11382;48.086;11.632;2023-03-21T14:00:17;19.30;80.20
22430;DHT22;11382;48.086;11.632;2023-03-21T14:02:59;19.30;80.00
22430;DHT22;11382;48.086;11.632;2023-03-21T14:05:34;19.10;82.00
22430;DHT22;11382;48.086;11.632;2023-03-21T14:08:05;19.20;83.60
22430;DHT22;11382;48.086;11.632;2023-03-21T14:10:46;19.00;80.30
22430;DHT22;11382;48.086;11.632;2023-03-21T14:13:18;18.70;80.50
22430;DHT22;11382;48.086;11.632;2023-03-21T14:15:48;18.70;80.70
22430;DHT22;11382;48.086;11.632;2023-03-21T14:18:24;18.70;83.20
22430;DHT22;11382;48.086;11.632;2023-03-21T14:21:17;18.90;81.60
22430;DHT22;11382;48.086;11.632;2023-03-21T14:23:58;19.00;80.80
22430;DHT22;11382;48.086;11.632;2023-03-21T14:26:28;18.70;78.20
22430;DHT22;11382;48.086;11.632;2023-03-21T14:28:57;18.40;80.20
22430;DHT22;11382;48.086;11.632;2023-03-21T14:31:25;18.40;81.40
22430;DHT22;11382;48.086;11.632;2023-03-21T14:33:56;18.50;80.90
22430;DHT22;11382;48.086;11.632;2023-03-21T14:36:27;18.50;80.20
22430;DHT22;11382;48.086;11.632;2023-03-21T14:39:03;18.40;82.20
22430;DHT22;11382;48.086;11.632;2023-03-21T14:41:32;18.40;84.30
22430;DHT22;11382;48.086;11.632;2023-03-21T14:44:14;18.40;83.90
22430;DHT22;11382;48.086;11.632;2023-03-21T14:46:43;18.40;82.90
22430;DHT22;11382;48.086;11.632;2023-03-21T14:49:13;18.40;82.20
22430;DHT22;11382;48.086;11.632;2023-03-21T14:51:42;18.40;85.80
22430;DHT22;11382;48.086;11.632;2023-03-21T14:54:14;18.40;83.30
22430;DHT22;11382;48.086;11.632;2023-03-21T14:56:47;18.60;84.40
22430;DHT22;11382;48.086;11.632;2023-03-21T14:59:20;18.40;83.60
22430;DHT22;11382;48.086;11.632;2023-03-21T15:01:50;18.20;85.90
22430;DHT22;11382;48.086;11.632;2023-03-21T15:04:19;18.00;84.60
22430;DHT22;11382;48.086;11.632;2023-03-21T15:06:52;17.50;87.00
22430;DHT22;11382;48.086;11.632;2023-03-21T15:09:23;17.20;88.00
22430;DHT22;11382;48.086;11.632;2023-03-21T15:11:53;17.10;88.50
22430;DHT22;11382;48.086;11.632;2023-03-21T15:14:32;16.80;90.00
22430;DHT22;11382;48.086;11.632;2023-03-21T15:17:02;17.00;89.90
22430;DHT22;11382;48.086;11.632;2023-03-21T15:19:34;17.00;89.80
22430;DHT22;11382;48.086;11.632;2023-03-21T15:22:14;17.10;89.80
22430;DHT22;11382;48.086;11.632;2023-03-21T15:24:49;17.10;89.40
22430;DHT22;11382;48.086;11.632;2023-03-21T15:27:22;17.00;89.10
22430;DHT22;11382;48.086;11.632;2023-03-21T15:29:52;16.70;88.00
22430;DHT22;11382;48.086;11.632;2023-03-21T15:32:23;16.60;88.70
22430;DHT22;11382;48.086;11.632;2023-03-21T15:34:53;16.60;88.30
22430;DHT22;11382;48.086;11.632;2023-03-21T15:37:26;16.50;87.20
22430;DHT22;11382;48.086;11.632;2023-03-21T15:40:09;16.50;87.10
22430;DHT22;11382;48.086;11.632;2023-03-21T15:42:42;16.30;88.80
22430;DHT22;11382;48.086;11.632;2023-03-21T15:45:16;16.40;87.60
22430;DHT22;11382;48.086;11.632;2023-03-21T15:47:53;16.40;87.00
22430;DHT22;11382;48.086;11.632;2023-03-21T15:50:26;16.40;87.00
22430;DHT22;11382;48.086;11.632;2023-03-21T15:52:59;16.40;87.80
22430;DHT22;11382;48.086;11.632;2023-03-21T15:55:31;16.40;89.30
22430;DHT22;11382;48.086;11.632;2023-03-21T15:58:04;16.40;89.40
22430;DHT22;11382;48.086;11.632;2023-03-21T16:00:37;16.40;89.60
22430;DHT22;11382;48.086;11.632;2023-03-21T16:03:12;16.30;89.70
22430;DHT22;11382;48.086;11.632;2023-03-21T16:06:04;16.20;90.10
22430;DHT22;11382;48.086;11.632;2023-03-21T16:08:42;16.20;90.20
22430;DHT22;11382;48.086;11.632;2023-03-21T16:11:16;16.00;90.30
22430;DHT22;11382;48.086;11.632;2023-03-21T16:13:46;15.90;90.80